sensor_id;sensor_type;location;lat;lon;timestamp;temperature;humidity
26589;DHT22;14235;48.532;8.722;2023-02-01T00:02:01;3.70;99.90
26589;DHT22;14235;48.532;8.722;2023-02-01T00:04:27;3.80;99.90
26589;DHT22;14235;48.532;8.722;2023-02-01T00:06:53;3.70;99.90
26589;DHT22;14235;48.532;8.722;2023-02-01T00:09:18;3.80;99.90
26589;DHT22;14235;48.532;8.722;2023-02-01T00:11:44;3.80;99.90
26589;DHT22;14235;48.532;8.722;2023-02-01T00:14:10;3.80;99.90
26589;DHT22;14235;48.532;8.722;2023-02-01T00:16:35;3.70;99.90
26589;DHT22;14235;48.532;8.722;2023-02-01T00:19:05;3.80;99.90
26589;DHT22;14235;48.532;8.722;2023-02-01T00:21:31;3.80;99.90
26589;DHT22;14235;48.532;8.722;2023-02-01T00:23:57;3.80;99.90
26589;DHT22;14235;48.532;8.722;2023-02-01T00:26:36;3.70;99.90
26589;DHT22;14235;48.532;8.722;2023-02-01T00:29:05;3.70;99.90
26589;DHT22;14235;48.532;8.722;2023-02-01T00:31:31;3.80;99.90
26589;DHT22;14235;48.532;8.722;2023-02-01T00:33:57;3.80;99.90
26589;DHT22;14235;48.532;8.722;2023-02-01T00:36:22;3.70;99.90
26589;DHT22;14235;48.532;8.722;2023-02-01T00:38:48;3.70;99.90
26589;DHT22;14235;48.532;8.722;2023-02-01T00:41:19;3.80;99.90
26589;DHT22;14235;48.532;8.722;2023-02-01T00:43:45;3.80;99.90
26589;DHT22;14235;48.532;8.722;2023-02-01T00:46:12;3.80;99.90
26589;DHT22;14235;48.532;8.722;2023-02-01T00:48:38;3.70;99.90
26589;DHT22;14235;48.532;8.722;2023-02-01T00:51:10;3.80;99.90
26589;DHT22;14235;48.532;8.722;2023-02-01T00:53:36;3.80;99.90
26589;DHT22;14235;48.532;8.722;2023-02-01T00:56:02;3.80;99.90
26589;DHT22;14235;48.532;8.722;2023-02-01T00:58:28;3.80;99.90
26589;DHT22;14235;48.532;8.722;2023-02-01T01:01:03;3.80;99.90
26589;DHT22;14235;48.532;8.722;2023-02-01T01:03:29;3.70;99.90
26589;DHT22;14235;48.532;8.722;2023-02-01T01:05:59;3.80;99.90
26589;DHT22;14235;48.532;8.722;2023-02-01T01:08:25;3.60;99.90
26589;DHT22;14235;48.532;8.722;2023-02-01T01:10:51;4.30;99.90
26589;DHT22;14235;48.532;8.722;2023-02-01T01:13:17;3.70;99.90
26589;DHT22;14235;48.532;8.722;2023-02-01T01:15:42;3.70;99.90
26589;DHT22;14235;48.532;8.722;2023-02-01T01:18:08;3.70;99.90
26589;DHT22;14235;48.532;8.722;2023-02-01T01:20:36;3.70;99.90
26589;DHT22;14235;48.532;8.722;2023-02-01T01:23:03;3.80;99.90
26589;DHT22;14235;48.532;8.722;2023-02-01T01:25:28;3.70;99.90
26589;DHT22;14235;48.532;8.722;2023-02-01T01:27:54;3.70;99.90
26589;DHT22;14235;48.532;8.722;2023-02-01T01:30:19;3.80;99.90
26589;DHT22;14235;48.532;8.722;2023-02-01T01:32:45;3.80;99.90
26589;DHT22;14235;48.532;8.722;2023-02-01T01:35:11;3.70;99.90
26589;DHT22;14235;48.532;8.722;2023-02-01T01:37:36;3.70;99.90
26589;DHT22;14235;48.532;8.722;2023-02-01T01:40:05;3.70;99.90
26589;DHT22;14235;48.532;8.722;2023-02-01T01:42:38;3.70;99.90
26589;DHT22;14235;48.532;8.722;2023-02-01T01:47:56;3.70;99.90
26589;DHT22;14235;48.532;8.722;2023-02-01T01:50:37;3.70;99.90
26589;DHT22;14235;48.532;8.722;2023-02-01T01:53:06;3.80;99.90
26589;DHT22;14235;48.532;8.722;2023-02-01T01:55:36;3.80;99.90
26589;DHT22;14235;48.532;8.722;2023-02-01T01:58:09;3.70;99.90
26589;DHT22;14235;48.532;8.722;2023-02-01T02:00:35;3.80;99.90
26589;DHT22;14235;48.532;8.722;2023-02-01T02:03:17;3.80;99.90
26589;DHT22;14235;48.532;8.722;2023-02-01T02:05:45;3.80;99.90
26589;DHT22;14235;48.532;8.722;2023-02-01T02:08:11;3.80;99.90
26589;DHT22;14235;48.532;8.722;2023-02-01T02:10:37;3.80;99.90
26589;DHT22;14235;48.532;8.722;2023-02-01T02:13:22;3.80;99.90
26589;DHT22;14235;48.532;8.722;2023-02-01T02:18:37;3.80;99.90
26589;DHT22;14235;48.532;8.722;2023-02-01T02:24:33;3.70;99.90
26589;DHT22;14235;48.532;8.722;2023-02-01T02:27:10;3.80;99.90
26589;DHT22;14235;48.532;8.722;2023-02-01T02:50:32;3.90;99.90
26589;DHT22;14235;48.532;8.722;2023-02-01T02:56:31;3.80;99.90
26589;DHT22;14235;48.532;8.722;2023-02-01T02:59:20;3.70;99.90
26589;DHT22;14235;48.532;8.722;2023-02-01T03:02:06;3.80;99.90
26589;DHT22;14235;48.532;8.722;2023-02-01T03:04:54;3.80;99.90
26589;DHT22;14235;48.532;8.722;2023-02-01T03:07:49;3.80;99.90
26589;DHT22;14235;48.532;8.722;2023-02-01T03:13:19;3.90;99.90
26589;DHT22;14235;48.532;8.722;2023-02-01T03:18:32;3.80;99.90
26589;DHT22;14235;48.532;8.722;2023-02-01T03:21:06;3.70;99.90
26589;DHT22;14235;48.532;8.722;2023-02-01T03:23:35;3.90;99.90
26589;DHT22;14235;48.532;8.722;2023-02-01T03:26:04;3.80;99.90
26589;DHT22;14235;48.532;8.722;2023-02-01T03:28:32;3.80;99.90
26589;DHT22;14235;48.532;8.722;2023-02-01T03:31:00;3.80;99.90
26589;DHT22;14235;48.532;8.722;2023-02-01T03:33:27;3.90;99.90
26589;DHT22;14235;48.532;8.722;2023-02-01T03:36:30;3.90;99.90
26589;DHT22;14235;48.532;8.722;2023-02-01T03:40:08;3.90;99.90
26589;DHT22;14235;48.532;8.722;2023-02-01T03:42:38;4.00;99.90
26589;DHT22;14235;48.532;8.722;2023-02-01T03:45:19;3.90;99.90
26589;DHT22;14235;48.532;8.722;2023-02-01T03:47:49;4.00;99.90
26589;DHT22;14235;48.532;8.722;2023-02-01T03:50:17;4.00;99.90
26589;DHT22;14235;48.532;8.722;2023-02-01T03:52:48;4.00;99.90
26589;DHT22;14235;48.532;8.722;2023-02-01T03:55:17;4.00;99.90
26589;DHT22;14235;48.532;8.722;2023-02-01T03:58:11;4.20;99.90
26589;DHT22;14235;48.532;8.722;2023-02-01T04:00:34;4.00;99.90
26589;DHT22;14235;48.532;8.722;2023-02-01T04:03:02;3.90;99.90
26589;DHT22;14235;48.532;8.722;2023-02-01T04:05:29;4.00;99.90
26589;DHT22;14235;48.532;8.722;2023-02-01T04:07:56;4.00;99.90
26589;DHT22;14235;48.532;8.722;2023-02-01T04:10:21;3.80;99.90
26589;DHT22;14235;48.532;8.722;2023-02-01T04:12:47;4.00;99.90
26589;DHT22;14235;48.532;8.722;2023-02-01T04:15:12;4.00;99.90
26589;DHT22;14235;48.532;8.722;2023-02-01T04:17:38;4.00;99.90
26589;DHT22;14235;48.532;8.722;2023-02-01T04:20:04;4.00;99.90
26589;DHT22;14235;48.532;8.722;2023-02-01T04:22:30;4.20;99.90
26589;DHT22;14235;48.532;8.722;2023-02-01T04:24:55;4.00;99.90
26589;DHT22;14235;48.532;8.722;2023-02-01T04:27:21;4.00;99.90
26589;DHT22;14235;48.532;8.722;2023-02-01T04:29:47;4.10;99.90
26589;DHT22;14235;48.532;8.722;2023-02-01T04:32:15;4.00;99.90
26589;DHT22;14235;48.532;8.722;2023-02-01T04:34:41;4.10;99.90
26589;DHT22;14235;48.532;8.722;2023-02-01T04:37:07;4.10;99.90
26589;DHT22;14235;48.532;8.722;2023-02-01T04:39:33;4.40;99.90
26589;DHT22;14235;48.532;8.722;2023-02-01T04:41:59;4.00;99.90
26589;DHT22;14235;48.532;8.722;2023-02-01T04:44:24;4.00;99.90
26589;DHT22;14235;48.532;8.722;2023-02-01T04:46:50;4.00;99.90
26589;DHT22;14235;48.532;8.722;2023-02-01T04:49:16;4.10;99.90
26589;DHT22;14235;48.532;8.722;2023-02-01T04:51:42;4.10;99.90
26589;DHT22;14235;48.532;8.722;2023-02-01T04:54:09;4.10;99.90
26589;DHT22;14235;48.532;8.722;2023-02-01T04:56:37;4.10;99.90
26589;DHT22;14235;48.532;8.722;2023-02-01T04:59:02;4.10;99.90
26589;DHT22;14235;48.532;8.722;2023-02-01T05:01:29;4.20;99.90
26589;DHT22;14235;48.532;8.722;2023-02-01T05:03:54;4.10;99.90
26589;DHT22;14235;48.532;8.722;2023-02-01T05:06:20;4.00;99.90
26589;DHT22;14235;48.532;8.722;2023-02-01T05:08:46;4.10;99.90
26589;DHT22;14235;48.532;8.722;2023-02-01T05:11:11;4.10;99.90
26589;DHT22;14235;48.532;8.722;2023-02-01T05:13:58;4.10;99.90
26589;DHT22;14235;48.532;8.722;2023-02-01T05:16:24;4.20;99.90
26589;DHT22;14235;48.532;8.722;2023-02-01T05:18:50;3.90;99.90
26589;DHT22;14235;48.532;8.722;2023-02-01T05:21:15;4.00;99.90
26589;DHT22;14235;48.532;8.722;2023-02-01T05:23:41;4.10;99.90
26589;DHT22;14235;48.532;8.722;2023-02-01T05:26:25;4.00;99.90
26589;DHT22;14235;48.532;8.722;2023-02-01T05:28:51;4.10;99.90
26589;DHT22;14235;48.532;8.722;2023-02-01T05:31:16;4.10;99.90
26589;DHT22;14235;48.532;8.722;2023-02-01T05:33:42;4.00;99.90
26589;DHT22;14235;48.532;8.722;2023-02-01T05:36:07;4.00;99.90
26589;DHT22;14235;48.532;8.722;2023-02-01T05:38:33;4.10;99.90
26589;DHT22;14235;48.532;8.722;2023-02-01T05:40:59;4.00;99.90
26589;DHT22;14235;48.532;8.722;2023-02-01T05:43:24;3.80;99.90
26589;DHT22;14235;48.532;8.722;2023-02-01T05:45:52;3.90;99.90
26589;DHT22;14235;48.532;8.722;2023-02-01T05:48:17;4.00;99.90
26589;DHT22;14235;48.532;8.722;2023-02-01T05:50:43;3.90;99.90
26589;DHT22;14235;48.532;8.722;2023-02-01T05:53:09;4.10;99.90
26589;DHT22;14235;48.532;8.722;2023-02-01T05:55:36;4.10;99.90
26589;DHT22;14235;48.532;8.722;2023-02-01T05:58:02;4.10;99.90
26589;DHT22;14235;48.532;8.722;2023-02-01T06:00:28;4.00;99.90
26589;DHT22;14235;48.532;8.722;2023-02-01T06:02:53;4.10;99.90
26589;DHT22;14235;48.532;8.722;2023-02-01T06:05:19;4.00;99.90
26589;DHT22;14235;48.532;8.722;2023-02-01T06:07:44;4.10;99.90
26589;DHT22;14235;48.532;8.722;2023-02-01T06:10:10;4.20;99.90
26589;DHT22;14235;48.532;8.722;2023-02-01T06:12:36;4.10;99.90
26589;DHT22;14235;48.532;8.722;2023-02-01T06:15:02;4.10;99.90
26589;DHT22;14235;48.532;8.722;2023-02-01T06:17:27;4.20;99.90
26589;DHT22;14235;48.532;8.722;2023-02-01T06:19:53;4.20;99.90
26589;DHT22;14235;48.532;8.722;2023-02-01T06:22:18;4.10;99.90
26589;DHT22;14235;48.532;8.722;2023-02-01T06:24:44;4.20;99.90
26589;DHT22;14235;48.532;8.722;2023-02-01T06:27:10;4.20;99.90
26589;DHT22;14235;48.532;8.722;2023-02-01T06:29:36;4.30;99.90
26589;DHT22;14235;48.532;8.722;2023-02-01T06:32:01;4.20;99.90
26589;DHT22;14235;48.532;8.722;2023-02-01T06:34:27;4.20;99.90
26589;DHT22;14235;48.532;8.722;2023-02-01T06:36:53;4.20;99.90
26589;DHT22;14235;48.532;8.722;2023-02-01T06:39:20;4.20;99.90
26589;DHT22;14235;48.532;8.722;2023-02-01T06:41:49;4.20;99.90
26589;DHT22;14235;48.532;8.722;2023-02-01T06:44:16;4.10;99.90
26589;DHT22;14235;48.532;8.722;2023-02-01T06:46:42;4.00;99.90
26589;DHT22;14235;48.532;8.722;2023-02-01T06:49:07;4.00;99.90
26589;DHT22;14235;48.532;8.722;2023-02-01T06:51:33;4.10;99.90
26589;DHT22;14235;48.532;8.722;2023-02-01T06:54:00;4.10;99.90
26589;DHT22;14235;48.532;8.722;2023-02-01T06:56:26;4.10;99.90
26589;DHT22;14235;48.532;8.722;2023-02-01T06:58:52;4.10;99.90
26589;DHT22;14235;48.532;8.722;2023-02-01T07:01:18;4.20;99.90
26589;DHT22;14235;48.532;8.722;2023-02-01T07:03:50;4.10;99.90
26589;DHT22;14235;48.532;8.722;2023-02-01T07:06:19;4.20;99.90
26589;DHT22;14235;48.532;8.722;2023-02-01T07:08:44;4.20;99.90
26589;DHT22;14235;48.532;8.722;2023-02-01T07:11:13;4.10;99.90
26589;DHT22;14235;48.532;8.722;2023-02-01T07:13:40;4.00;99.90
26589;DHT22;14235;48.532;8.722;2023-02-01T07:16:09;4.30;99.90
26589;DHT22;14235;48.532;8.722;2023-02-01T07:18:35;4.10;99.90
26589;DHT22;14235;48.532;8.722;2023-02-01T07:21:01;4.10;99.90
26589;DHT22;14235;48.532;8.722;2023-02-01T07:23:32;4.10;99.90
26589;DHT22;14235;48.532;8.722;2023-02-01T07:26:01;4.10;99.90
26589;DHT22;14235;48.532;8.722;2023-02-01T07:28:30;4.10;99.90
26589;DHT22;14235;48.532;8.722;2023-02-01T07:31:02;4.80;99.90
26589;DHT22;14235;48.532;8.722;2023-02-01T07:33:29;4.20;99.90
26589;DHT22;14235;48.532;8.722;2023-02-01T07:35:55;4.20;99.90
26589;DHT22;14235;48.532;8.722;2023-02-01T07:38:20;3.90;99.90
26589;DHT22;14235;48.532;8.722;2023-02-01T07:40:47;4.40;99.90
26589;DHT22;14235;48.532;8.722;2023-02-01T07:43:12;4.20;99.90
26589;DHT22;14235;48.532;8.722;2023-02-01T07:45:38;4.90;99.90
26589;DHT22;14235;48.532;8.722;2023-02-01T07:48:04;4.10;99.90
26589;DHT22;14235;48.532;8.722;2023-02-01T07:50:30;4.20;99.90
26589;DHT22;14235;48.532;8.722;2023-02-01T07:52:58;4.20;99.90
26589;DHT22;14235;48.532;8.722;2023-02-01T07:55:23;4.40;99.90
26589;DHT22;14235;48.532;8.722;2023-02-01T07:57:50;4.30;99.90
26589;DHT22;14235;48.532;8.722;2023-02-01T08:00:16;4.40;99.90
26589;DHT22;14235;48.532;8.722;2023-02-01T08:03:00;4.20;99.90
26589;DHT22;14235;48.532;8.722;2023-02-01T08:05:27;4.50;99.90
26589;DHT22;14235;48.532;8.722;2023-02-01T08:07:52;4.60;99.90
26589;DHT22;14235;48.532;8.722;2023-02-01T08:10:18;4.60;99.90
26589;DHT22;14235;48.532;8.722;2023-02-01T08:12:44;4.50;99.90
26589;DHT22;14235;48.532;8.722;2023-02-01T08:15:14;4.70;99.90
26589;DHT22;14235;48.532;8.722;2023-02-01T08:17:46;4.70;99.90
26589;DHT22;14235;48.532;8.722;2023-02-01T08:20:12;4.70;99.90
26589;DHT22;14235;48.532;8.722;2023-02-01T08:22:38;4.70;99.90
26589;DHT22;14235;48.532;8.722;2023-02-01T08:25:05;4.70;99.90
26589;DHT22;14235;48.532;8.722;2023-02-01T08:27:33;4.70;99.90
26589;DHT22;14235;48.532;8.722;2023-02-01T08:29:59;4.60;99.90
26589;DHT22;14235;48.532;8.722;2023-02-01T08:32:25;4.70;99.90
26589;DHT22;14235;48.532;8.722;2023-02-01T08:34:51;5.40;99.90
26589;DHT22;14235;48.532;8.722;2023-02-01T08:37:16;4.70;99.90
26589;DHT22;14235;48.532;8.722;2023-02-01T08:39:42;4.70;99.90
26589;DHT22;14235;48.532;8.722;2023-02-01T08:42:09;4.70;99.90
26589;DHT22;14235;48.532;8.722;2023-02-01T08:44:54;4.70;99.90
26589;DHT22;14235;48.532;8.722;2023-02-01T08:47:20;5.30;99.90
26589;DHT22;14235;48.532;8.722;2023-02-01T08:49:46;4.70;99.90
26589;DHT22;14235;48.532;8.722;2023-02-01T08:52:11;4.80;99.90
26589;DHT22;14235;48.532;8.722;2023-02-01T08:54:37;4.80;99.90
26589;DHT22;14235;48.532;8.722;2023-02-01T08:57:04;4.70;99.90
26589;DHT22;14235;48.532;8.722;2023-02-01T08:59:30;4.70;99.90
26589;DHT22;14235;48.532;8.722;2023-02-01T09:01:56;4.60;99.90
26589;DHT22;14235;48.532;8.722;2023-02-01T09:04:21;4.70;99.90
26589;DHT22;14235;48.532;8.722;2023-02-01T09:06:47;4.70;99.90
26589;DHT22;14235;48.532;8.722;2023-02-01T09:09:12;4.70;99.90
26589;DHT22;14235;48.532;8.722;2023-02-01T09:11:38;4.70;99.90
26589;DHT22;14235;48.532;8.722;2023-02-01T09:14:04;4.70;99.90
26589;DHT22;14235;48.532;8.722;2023-02-01T09:16:29;4.90;99.90
26589;DHT22;14235;48.532;8.722;2023-02-01T09:18:55;4.90;99.90
26589;DHT22;14235;48.532;8.722;2023-02-01T09:21:21;4.80;99.90
26589;DHT22;14235;48.532;8.722;2023-02-01T09:23:46;4.90;99.90
26589;DHT22;14235;48.532;8.722;2023-02-01T09:26:14;4.90;99.90
26589;DHT22;14235;48.532;8.722;2023-02-01T09:28:39;5.00;99.90
26589;DHT22;14235;48.532;8.722;2023-02-01T09:31:05;5.00;99.90
26589;DHT22;14235;48.532;8.722;2023-02-01T09:33:31;5.00;99.90
26589;DHT22;14235;48.532;8.722;2023-02-01T09:36:00;5.00;99.90
26589;DHT22;14235;48.532;8.722;2023-02-01T09:38:26;4.90;99.90
26589;DHT22;14235;48.532;8.722;2023-02-01T09:40:53;5.10;99.90
26589;DHT22;14235;48.532;8.722;2023-02-01T09:43:48;5.00;99.90
26589;DHT22;14235;48.532;8.722;2023-02-01T09:46:24;4.90;99.90
26589;DHT22;14235;48.532;8.722;2023-02-01T09:48:54;5.00;99.90
26589;DHT22;14235;48.532;8.722;2023-02-01T09:51:36;5.10;99.90
26589;DHT22;14235;48.532;8.722;2023-02-01T09:54:09;5.00;99.90
26589;DHT22;14235;48.532;8.722;2023-02-01T09:57:28;5.00;99.90
26589;DHT22;14235;48.532;8.722;2023-02-01T09:59:42;5.00;99.90
26589;DHT22;14235;48.532;8.722;2023-02-01T10:02:23;5.00;99.90
26589;DHT22;14235;48.532;8.722;2023-02-01T10:04:49;5.10;99.90
26589;DHT22;14235;48.532;8.722;2023-02-01T10:10:05;5.20;99.90
26589;DHT22;14235;48.532;8.722;2023-02-01T10:12:59;5.10;99.90
26589;DHT22;14235;48.532;8.722;2023-02-01T10:15:46;5.20;99.90
26589;DHT22;14235;48.532;8.722;2023-02-01T10:18:40;5.30;99.90
26589;DHT22;14235;48.532;8.722;2023-02-01T10:22:06;5.30;99.90
26589;DHT22;14235;48.532;8.722;2023-02-01T10:26:42;5.40;99.90
26589;DHT22;14235;48.532;8.722;2023-02-01T10:29:19;5.40;99.90
26589;DHT22;14235;48.532;8.722;2023-02-01T10:31:45;5.60;99.90
26589;DHT22;14235;48.532;8.722;2023-02-01T10:34:21;5.50;99.90
26589;DHT22;14235;48.532;8.722;2023-02-01T10:39:14;5.60;99.90
26589;DHT22;14235;48.532;8.722;2023-02-01T10:41:40;5.60;99.90
26589;DHT22;14235;48.532;8.722;2023-02-01T10:44:14;5.90;99.90
26589;DHT22;14235;48.532;8.722;2023-02-01T10:46:40;5.70;99.90
26589;DHT22;14235;48.532;8.722;2023-02-01T10:49:13;5.50;99.90
26589;DHT22;14235;48.532;8.722;2023-02-01T10:51:55;5.60;99.90
26589;DHT22;14235;48.532;8.722;2023-02-01T10:54:34;5.60;99.90
26589;DHT22;14235;48.532;8.722;2023-02-01T10:57:00;5.60;99.90
26589;DHT22;14235;48.532;8.722;2023-02-01T10:59:29;5.50;99.90
26589;DHT22;14235;48.532;8.722;2023-02-01T11:02:01;5.90;99.90
26589;DHT22;14235;48.532;8.722;2023-02-01T11:04:30;6.10;99.90
26589;DHT22;14235;48.532;8.722;2023-02-01T11:07:31;5.50;99.90
26589;DHT22;14235;48.532;8.722;2023-02-01T11:09:57;5.50;99.90
26589;DHT22;14235;48.532;8.722;2023-02-01T11:12:30;5.50;99.90
26589;DHT22;14235;48.532;8.722;2023-02-01T11:15:15;5.40;99.90
26589;DHT22;14235;48.532;8.722;2023-02-01T11:17:46;5.60;99.90
26589;DHT22;14235;48.532;8.722;2023-02-01T11:20:19;5.40;99.90
26589;DHT22;14235;48.532;8.722;2023-02-01T11:22:52;5.50;99.90
26589;DHT22;14235;48.532;8.722;2023-02-01T11:25:19;5.40;99.90
26589;DHT22;14235;48.532;8.722;2023-02-01T11:27:47;5.30;99.90
26589;DHT22;14235;48.532;8.722;2023-02-01T11:32:48;5.50;99.90
26589;DHT22;14235;48.532;8.722;2023-02-01T11:35:20;5.50;99.90
26589;DHT22;14235;48.532;8.722;2023-02-01T11:37:53;5.50;99.90
26589;DHT22;14235;48.532;8.722;2023-02-01T11:45:39;5.70;99.90
26589;DHT22;14235;48.532;8.722;2023-02-01T11:48:10;5.80;99.90
26589;DHT22;14235;48.532;8.722;2023-02-01T11:56:40;5.90;99.90
26589;DHT22;14235;48.532;8.722;2023-02-01T12:26:44;6.10;99.90
26589;DHT22;14235;48.532;8.722;2023-02-01T12:30:10;6.20;99.90
26589;DHT22;14235;48.532;8.722;2023-02-01T12:44:38;6.10;99.90
26589;DHT22;14235;48.532;8.722;2023-02-01T12:47:32;5.90;99.90
26589;DHT22;14235;48.532;8.722;2023-02-01T12:50:11;5.90;99.90
26589;DHT22;14235;48.532;8.722;2023-02-01T12:52:44;5.80;99.90
26589;DHT22;14235;48.532;8.722;2023-02-01T12:55:23;5.80;99.90
26589;DHT22;14235;48.532;8.722;2023-02-01T12:58:04;5.70;99.90
26589;DHT22;14235;48.532;8.722;2023-02-01T13:00:38;5.70;99.90
26589;DHT22;14235;48.532;8.722;2023-02-01T13:06:22;5.70;99.90
26589;DHT22;14235;48.532;8.722;2023-02-01T13:11:33;5.60;99.90
26589;DHT22;14235;48.532;8.722;2023-02-01T13:16:47;5.50;99.90
26589;DHT22;14235;48.532;8.722;2023-02-01T13:21:58;5.50;99.90
26589;DHT22;14235;48.532;8.722;2023-02-01T13:24:40;5.60;99.90
26589;DHT22;14235;48.532;8.722;2023-02-01T13:27:14;5.60;99.90
26589;DHT22;14235;48.532;8.722;2023-02-01T13:37:38;5.60;99.90
26589;DHT22;14235;48.532;8.722;2023-02-01T13:43:38;5.60;99.90
26589;DHT22;14235;48.532;8.722;2023-02-01T13:46:08;5.60;99.90
26589;DHT22;14235;48.532;8.722;2023-02-01T13:48:49;5.60;99.90
26589;DHT22;14235;48.532;8.722;2023-02-01T13:53:59;5.50;99.90
26589;DHT22;14235;48.532;8.722;2023-02-01T13:56:25;5.50;99.90
26589;DHT22;14235;48.532;8.722;2023-02-01T13:58:51;5.90;99.90
26589;DHT22;14235;48.532;8.722;2023-02-01T14:03:56;5.50;99.90
26589;DHT22;14235;48.532;8.722;2023-02-01T14:11:50;5.60;99.90
26589;DHT22;14235;48.532;8.722;2023-02-01T14:19:20;5.70;99.90
26589;DHT22;14235;48.532;8.722;2023-02-01T14:21:54;5.80;99.90
26589;DHT22;14235;48.532;8.722;2023-02-01T14:24:27;5.70;99.90
26589;DHT22;14235;48.532;8.722;2023-02-01T14:26:55;6.10;99.90
26589;DHT22;14235;48.532;8.722;2023-02-01T14:29:31;5.70;99.90
26589;DHT22;14235;48.532;8.722;2023-02-01T14:32:16;5.70;99.90
26589;DHT22;14235;48.532;8.722;2023-02-01T14:34:52;5.70;99.90
26589;DHT22;14235;48.532;8.722;2023-02-01T14:42:24;5.70;99.90
26589;DHT22;14235;48.532;8.722;2023-02-01T14:44:52;5.70;99.90
26589;DHT22;14235;48.532;8.722;2023-02-01T15:01:28;5.60;99.90
26589;DHT22;14235;48.532;8.722;2023-02-01T15:04:17;5.60;99.90
26589;DHT22;14235;48.532;8.722;2023-02-01T15:06:49;5.50;99.90
26589;DHT22;14235;48.532;8.722;2023-02-01T15:09:36;5.70;99.90
26589;DHT22;14235;48.532;8.722;2023-02-01T15:14:43;5.80;99.90
26589;DHT22;14235;48.532;8.722;2023-02-01T15:17:25;5.70;99.90
26589;DHT22;14235;48.532;8.722;2023-02-01T15:19:58;5.50;99.90
26589;DHT22;14235;48.532;8.722;2023-02-01T15:22:26;5.70;99.90
26589;DHT22;14235;48.532;8.722;2023-02-01T15:24:53;5.60;99.90
26589;DHT22;14235;48.532;8.722;2023-02-01T15:27:20;5.60;99.90
26589;DHT22;14235;48.532;8.722;2023-02-01T15:29:46;5.60;99.90
26589;DHT22;14235;48.532;8.722;2023-02-01T15:34:56;5.40;99.90
26589;DHT22;14235;48.532;8.722;2023-02-01T15:37:22;5.50;99.90
26589;DHT22;14235;48.532;8.722;2023-02-01T15:45:17;5.50;99.90
26589;DHT22;14235;48.532;8.722;2023-02-01T15:47:50;5.60;99.90
26589;DHT22;14235;48.532;8.722;2023-02-01T15:50:18;5.50;99.90
26589;DHT22;14235;48.532;8.722;2023-02-01T15:52:47;5.50;99.90
26589;DHT22;14235;48.532;8.722;2023-02-01T15:58:05;5.50;99.90
26589;DHT22;14235;48.532;8.722;2023-02-01T16:00:42;5.40;99.90
26589;DHT22;14235;48.532;8.722;2023-02-01T16:03:34;5.40;99.90
26589;DHT22;14235;48.532;8.722;2023-02-01T16:06:06;5.50;99.90
26589;DHT22;14235;48.532;8.722;2023-02-01T16:08:33;5.50;99.90
26589;DHT22;14235;48.532;8.722;2023-02-01T16:13:35;5.50;99.90
26589;DHT22;14235;48.532;8.722;2023-02-01T16:16:02;5.30;99.90
26589;DHT22;14235;48.532;8.722;2023-02-01T16:18:29;5.50;99.90
26589;DHT22;14235;48.532;8.722;2023-02-01T16:20:54;5.40;99.90
26589;DHT22;14235;48.532;8.722;2023-02-01T16:23:20;5.50;99.90
26589;DHT22;14235;48.532;8.722;2023-02-01T16:25:46;5.40;99.90
26589;DHT22;14235;48.532;8.722;2023-02-01T16:28:11;5.50;99.90
26589;DHT22;14235;48.532;8.722;2023-02-01T16:30:37;5.40;99.90
26589;DHT22;14235;48.532;8.722;2023-02-01T16:33:03;5.40;99.90
26589;DHT22;14235;48.532;8.722;2023-02-01T16:35:35;5.40;99.90
26589;DHT22;14235;48.532;8.722;2023-02-01T16:38:03;5.40;99.90
26589;DHT22;14235;48.532;8.722;2023-02-01T16:40:34;5.30;99.90
26589;DHT22;14235;48.532;8.722;2023-02-01T16:43:00;5.30;99.90
26589;DHT22;14235;48.532;8.722;2023-02-01T16:45:25;5.20;99.90
26589;DHT22;14235;48.532;8.722;2023-02-01T16:47:54;5.30;99.90
26589;DHT22;14235;48.532;8.722;2023-02-01T16:50:25;5.40;99.90
26589;DHT22;14235;48.532;8.722;2023-02-01T16:52:52;5.40;99.90
26589;DHT22;14235;48.532;8.722;2023-02-01T16:55:19;5.30;99.90
26589;DHT22;14235;48.532;8.722;2023-02-01T16:57:46;5.30;99.90
26589;DHT22;14235;48.532;8.722;2023-02-01T17:00:13;5.30;99.90
26589;DHT22;14235;48.532;8.722;2023-02-01T17:02:41;5.30;99.90
26589;DHT22;14235;48.532;8.722;2023-02-01T17:05:09;5.20;99.90
26589;DHT22;14235;48.532;8.722;2023-02-01T17:07:36;5.50;99.90
26589;DHT22;14235;48.532;8.722;2023-02-01T17:10:04;5.20;99.90
26589;DHT22;14235;48.532;8.722;2023-02-01T17:12:32;5.30;99.90
26589;DHT22;14235;48.532;8.722;2023-02-01T17:14:59;5.20;99.90
26589;DHT22;14235;48.532;8.722;2023-02-01T17:17:33;5.10;99.90
26589;DHT22;14235;48.532;8.722;2023-02-01T17:20:00;5.20;99.90
26589;DHT22;14235;48.532;8.722;2023-02-01T17:22:26;5.10;99.90
26589;DHT22;14235;48.532;8.722;2023-02-01T17:24:51;5.20;99.90
26589;DHT22;14235;48.532;8.722;2023-02-01T17:27:17;5.20;99.90
26589;DHT22;14235;48.532;8.722;2023-02-01T17:29:43;5.20;99.90
26589;DHT22;14235;48.532;8.722;2023-02-01T17:32:20;5.20;99.90
26589;DHT22;14235;48.532;8.722;2023-02-01T17:34:46;5.20;99.90
26589;DHT22;14235;48.532;8.722;2023-02-01T17:37:33;5.20;99.90
26589;DHT22;14235;48.532;8.722;2023-02-01T17:39:59;5.20;99.90
26589;DHT22;14235;48.532;8.722;2023-02-01T17:42:27;5.60;99.90
26589;DHT22;14235;48.532;8.722;2023-02-01T17:44:59;5.20;99.90
26589;DHT22;14235;48.532;8.722;2023-02-01T17:47:26;5.20;99.90
26589;DHT22;14235;48.532;8.722;2023-02-01T17:49:51;5.30;99.90
26589;DHT22;14235;48.532;8.722;2023-02-01T17:52:21;5.30;99.90
26589;DHT22;14235;48.532;8.722;2023-02-01T17:54:47;5.20;99.90
26589;DHT22;14235;48.532;8.722;2023-02-01T17:57:15;4.90;99.90
26589;DHT22;14235;48.532;8.722;2023-02-01T17:59:42;5.10;99.90
26589;DHT22;14235;48.532;8.722;2023-02-01T18:02:23;5.10;99.90
26589;DHT22;14235;48.532;8.722;2023-02-01T18:04:49;5.20;99.90
26589;DHT22;14235;48.532;8.722;2023-02-01T18:07:15;5.30;99.90
26589;DHT22;14235;48.532;8.722;2023-02-01T18:09:41;5.10;99.90
26589;DHT22;14235;48.532;8.722;2023-02-01T18:12:19;5.10;99.90
26589;DHT22;14235;48.532;8.722;2023-02-01T18:14:45;5.20;99.90
26589;DHT22;14235;48.532;8.722;2023-02-01T18:17:11;5.20;99.90
26589;DHT22;14235;48.532;8.722;2023-02-01T18:19:37;5.20;99.90
26589;DHT22;14235;48.532;8.722;2023-02-01T18:22:03;5.30;99.90
26589;DHT22;14235;48.532;8.722;2023-02-01T18:24:29;5.60;99.90
26589;DHT22;14235;48.532;8.722;2023-02-01T18:26:59;5.20;99.90
26589;DHT22;14235;48.532;8.722;2023-02-01T18:29:25;5.30;99.90
26589;DHT22;14235;48.532;8.722;2023-02-01T18:31:50;5.60;99.90
26589;DHT22;14235;48.532;8.722;2023-02-01T18:34:16;5.50;99.90
26589;DHT22;14235;48.532;8.722;2023-02-01T18:36:47;5.40;99.90
26589;DHT22;14235;48.532;8.722;2023-02-01T18:39:13;5.40;99.90
26589;DHT22;14235;48.532;8.722;2023-02-01T18:41:39;5.10;99.90
26589;DHT22;14235;48.532;8.722;2023-02-01T18:44:05;5.10;99.90
26589;DHT22;14235;48.532;8.722;2023-02-01T18:48:57;5.30;99.90
26589;DHT22;14235;48.532;8.722;2023-02-01T18:51:22;5.70;99.90
26589;DHT22;14235;48.532;8.722;2023-02-01T18:53:49;5.30;99.90
26589;DHT22;14235;48.532;8.722;2023-02-01T18:56:16;5.20;99.90
26589;DHT22;14235;48.532;8.722;2023-02-01T18:58:45;5.40;99.90